sensor_id;sensor_type;location;lat;lon;timestamp;pressure;altitude;pressure_sealevel;temperature;humidity
79671;BME280;69137;50.878;8.050;2023-08-17T00:02:00;98584.94;;;18.36;92.99
79671;BME280;69137;50.878;8.050;2023-08-17T00:04:26;98574.06;;;18.39;93.44
79671;BME280;69137;50.878;8.050;2023-08-17T00:06:51;98566.47;;;18.45;92.45
79671;BME280;69137;50.878;8.050;2023-08-17T00:09:16;98577.66;;;18.40;91.92
79671;BME280;69137;50.878;8.050;2023-08-17T00:11:42;98577.53;;;18.45;92.14
79671;BME280;69137;50.878;8.050;2023-08-17T00:14:07;98574.44;;;18.46;91.78
79671;BME280;69137;50.878;8.050;2023-08-17T00:16:33;98569.84;;;18.42;92.07
79671;BME280;69137;50.878;8.050;2023-08-17T00:18:58;98562.56;;;18.46;91.44
79671;BME280;69137;50.878;8.050;2023-08-17T00:21:24;98560.84;;;18.36;90.86
79671;BME280;69137;50.878;8.050;2023-08-17T00:23:49;98557.34;;;18.44;91.55
79671;BME280;69137;50.878;8.050;2023-08-17T00:26:15;98569.25;;;18.45;91.91
79671;BME280;69137;50.878;8.050;2023-08-17T00:28:40;98567.78;;;18.47;90.98
79671;BME280;69137;50.878;8.050;2023-08-17T00:31:06;98574.91;;;18.40;90.76
79671;BME280;69137;50.878;8.050;2023-08-17T00:33:31;98561.81;;;18.31;90.83
79671;BME280;69137;50.878;8.050;2023-08-17T00:35:57;98576.69;;;18.22;91.34
79671;BME280;69137;50.878;8.050;2023-08-17T00:38:22;98577.31;;;18.19;92.08
79671;BME280;69137;50.878;8.050;2023-08-17T00:40:47;98573.41;;;18.20;92.05
79671;BME280;69137;50.878;8.050;2023-08-17T00:43:13;98565.94;;;18.20;92.32
79671;BME280;69137;50.878;8.050;2023-08-17T00:45:39;98564.19;;;18.24;91.06
79671;BME280;69137;50.878;8.050;2023-08-17T00:48:06;98554.38;;;18.18;90.63
79671;BME280;69137;50.878;8.050;2023-08-17T00:50:33;98546.34;;;17.94;92.05
79671;BME280;69137;50.878;8.050;2023-08-17T00:52:59;98540.25;;;17.83;91.98
79671;BME280;69137;50.878;8.050;2023-08-17T00:55:25;98539.81;;;17.76;91.45
79671;BME280;69137;50.878;8.050;2023-08-17T00:57:51;98544.75;;;17.65;91.34
79671;BME280;69137;50.878;8.050;2023-08-17T01:00:18;98545.16;;;17.59;91.79
79671;BME280;69137;50.878;8.050;2023-08-17T01:02:44;98548.22;;;17.57;91.64
79671;BME280;69137;50.878;8.050;2023-08-17T01:05:09;98542.19;;;17.55;91.52
79671;BME280;69137;50.878;8.050;2023-08-17T01:07:35;98535.56;;;17.56;91.98
79671;BME280;69137;50.878;8.050;2023-08-17T01:10:02;98546.91;;;17.55;91.71
79671;BME280;69137;50.878;8.050;2023-08-17T01:12:31;98549.78;;;17.50;91.83
79671;BME280;69137;50.878;8.050;2023-08-17T01:17:29;98550.16;;;17.43;92.36
79671;BME280;69137;50.878;8.050;2023-08-17T01:19:58;98550.88;;;17.35;92.11
79671;BME280;69137;50.878;8.050;2023-08-17T01:22:24;98536.88;;;17.31;92.20
79671;BME280;69137;50.878;8.050;2023-08-17T01:24:54;98545.78;;;17.28;92.75
79671;BME280;69137;50.878;8.050;2023-08-17T01:27:23;98537.38;;;17.19;92.99
79671;BME280;69137;50.878;8.050;2023-08-17T01:29:49;98542.00;;;17.24;92.54
79671;BME280;69137;50.878;8.050;2023-08-17T01:32:30;98542.28;;;17.22;92.58
79671;BME280;69137;50.878;8.050;2023-08-17T01:35:02;98543.75;;;17.34;91.78
79671;BME280;69137;50.878;8.050;2023-08-17T01:37:31;98550.19;;;17.29;92.30
79671;BME280;69137;50.878;8.050;2023-08-17T01:39:59;98546.69;;;17.23;91.62
79671;BME280;69137;50.878;8.050;2023-08-17T01:42:25;98546.50;;;17.20;91.69
79671;BME280;69137;50.878;8.050;2023-08-17T01:44:51;98546.09;;;17.13;91.88
79671;BME280;69137;50.878;8.050;2023-08-17T01:47:21;98558.31;;;17.07;93.21
79671;BME280;69137;50.878;8.050;2023-08-17T01:49:47;98555.16;;;16.99;93.56
79671;BME280;69137;50.878;8.050;2023-08-17T01:52:12;98553.75;;;17.02;92.47
79671;BME280;69137;50.878;8.050;2023-08-17T01:54:37;98557.28;;;16.89;93.05
79671;BME280;69137;50.878;8.050;2023-08-17T01:57:03;98556.28;;;16.98;93.81
79671;BME280;69137;50.878;8.050;2023-08-17T01:59:28;98554.03;;;17.00;93.72
79671;BME280;69137;50.878;8.050;2023-08-17T02:01:54;98545.84;;;16.95;93.26
79671;BME280;69137;50.878;8.050;2023-08-17T02:04:19;98555.13;;;16.86;92.82
79671;BME280;69137;50.878;8.050;2023-08-17T02:06:44;98544.50;;;16.79;92.74
79671;BME280;69137;50.878;8.050;2023-08-17T02:09:10;98544.19;;;16.80;93.18
79671;BME280;69137;50.878;8.050;2023-08-17T02:11:35;98536.13;;;16.84;93.05
79671;BME280;69137;50.878;8.050;2023-08-17T02:14:01;98537.88;;;16.94;93.46
79671;BME280;69137;50.878;8.050;2023-08-17T02:16:26;98533.00;;;17.05;92.18
79671;BME280;69137;50.878;8.050;2023-08-17T02:18:51;98531.44;;;16.98;91.91
79671;BME280;69137;50.878;8.050;2023-08-17T02:21:17;98532.88;;;16.96;92.43
79671;BME280;69137;50.878;8.050;2023-08-17T02:23:42;98532.06;;;16.95;92.82
79671;BME280;69137;50.878;8.050;2023-08-17T02:26:08;98536.97;;;16.98;92.74
79671;BME280;69137;50.878;8.050;2023-08-17T02:28:33;98530.53;;;17.03;93.12
79671;BME280;69137;50.878;8.050;2023-08-17T02:30:59;98521.72;;;16.87;93.53
79671;BME280;69137;50.878;8.050;2023-08-17T02:33:24;98514.69;;;16.62;94.64
79671;BME280;69137;50.878;8.050;2023-08-17T02:35:50;98516.03;;;16.65;95.20
79671;BME280;69137;50.878;8.050;2023-08-17T02:38:16;98514.47;;;16.58;95.29
79671;BME280;69137;50.878;8.050;2023-08-17T02:40:42;98520.53;;;16.74;95.28
79671;BME280;69137;50.878;8.050;2023-08-17T02:43:07;98509.50;;;16.74;94.47
79671;BME280;69137;50.878;8.050;2023-08-17T02:45:33;98514.50;;;16.72;94.36
79671;BME280;69137;50.878;8.050;2023-08-17T02:47:59;98516.75;;;16.70;94.75
79671;BME280;69137;50.878;8.050;2023-08-17T02:50:24;98513.91;;;16.75;95.13
79671;BME280;69137;50.878;8.050;2023-08-17T02:52:50;98506.28;;;16.86;94.79
79671;BME280;69137;50.878;8.050;2023-08-17T02:55:15;98509.75;;;16.78;94.43
79671;BME280;69137;50.878;8.050;2023-08-17T02:57:41;98509.31;;;16.71;94.58
79671;BME280;69137;50.878;8.050;2023-08-17T03:00:07;98505.31;;;16.77;94.71
79671;BME280;69137;50.878;8.050;2023-08-17T03:02:32;98503.13;;;16.79;94.44
79671;BME280;69137;50.878;8.050;2023-08-17T03:04:57;98504.28;;;16.73;94.20
79671;BME280;69137;50.878;8.050;2023-08-17T03:07:23;98501.72;;;16.63;94.40
79671;BME280;69137;50.878;8.050;2023-08-17T03:09:48;98495.09;;;16.64;94.18
79671;BME280;69137;50.878;8.050;2023-08-17T03:12:14;98492.53;;;16.67;94.37
79671;BME280;69137;50.878;8.050;2023-08-17T03:14:39;98495.44;;;16.76;94.47
79671;BME280;69137;50.878;8.050;2023-08-17T03:17:05;98483.81;;;16.79;94.36
79671;BME280;69137;50.878;8.050;2023-08-17T03:19:30;98488.09;;;16.85;93.95
79671;BME280;69137;50.878;8.050;2023-08-17T03:21:55;98488.19;;;16.80;94.00
79671;BME280;69137;50.878;8.050;2023-08-17T03:24:21;98480.34;;;16.87;93.48
79671;BME280;69137;50.878;8.050;2023-08-17T03:26:46;98484.19;;;16.86;93.51
79671;BME280;69137;50.878;8.050;2023-08-17T03:29:12;98476.97;;;16.90;93.30
79671;BME280;69137;50.878;8.050;2023-08-17T03:31:37;98486.88;;;16.91;93.21
79671;BME280;69137;50.878;8.050;2023-08-17T03:34:03;98482.78;;;16.89;93.12
79671;BME280;69137;50.878;8.050;2023-08-17T03:36:28;98480.44;;;16.82;93.46
79671;BME280;69137;50.878;8.050;2023-08-17T03:38:54;98484.19;;;16.86;93.44
79671;BME280;69137;50.878;8.050;2023-08-17T03:41:21;98483.81;;;16.93;93.10
79671;BME280;69137;50.878;8.050;2023-08-17T03:43:48;98485.03;;;16.87;93.00
79671;BME280;69137;50.878;8.050;2023-08-17T03:46:14;98484.69;;;16.74;93.72
79671;BME280;69137;50.878;8.050;2023-08-17T03:48:39;98476.06;;;16.81;93.89
79671;BME280;69137;50.878;8.050;2023-08-17T03:51:04;98482.78;;;16.89;93.74
79671;BME280;69137;50.878;8.050;2023-08-17T03:53:30;98477.16;;;16.94;93.79
79671;BME280;69137;50.878;8.050;2023-08-17T03:55:55;98474.09;;;16.95;93.43
79671;BME280;69137;50.878;8.050;2023-08-17T03:58:21;98480.16;;;16.97;93.59
79671;BME280;69137;50.878;8.050;2023-08-17T04:00:53;98485.25;;;17.04;93.93
79671;BME280;69137;50.878;8.050;2023-08-17T04:03:19;98494.84;;;17.07;93.67
79671;BME280;69137;50.878;8.050;2023-08-17T04:05:45;98505.78;;;17.12;93.48
79671;BME280;69137;50.878;8.050;2023-08-17T04:08:10;98503.44;;;17.05;93.55
79671;BME280;69137;50.878;8.050;2023-08-17T04:10:36;98506.50;;;17.03;93.33
79671;BME280;69137;50.878;8.050;2023-08-17T04:13:01;98509.06;;;17.00;93.78
79671;BME280;69137;50.878;8.050;2023-08-17T04:15:26;98510.50;;;16.97;94.02
79671;BME280;69137;50.878;8.050;2023-08-17T04:17:52;98515.31;;;17.06;94.20
79671;BME280;69137;50.878;8.050;2023-08-17T04:20:17;98519.91;;;17.10;93.82
79671;BME280;69137;50.878;8.050;2023-08-17T04:22:46;98519.28;;;16.99;93.79
79671;BME280;69137;50.878;8.050;2023-08-17T04:25:13;98512.34;;;17.02;94.01
79671;BME280;69137;50.878;8.050;2023-08-17T04:27:38;98520.91;;;17.00;94.70
79671;BME280;69137;50.878;8.050;2023-08-17T04:30:04;98528.38;;;17.00;94.67
79671;BME280;69137;50.878;8.050;2023-08-17T04:32:30;98527.97;;;17.07;94.52
79671;BME280;69137;50.878;8.050;2023-08-17T04:34:55;98525.53;;;17.05;94.48
79671;BME280;69137;50.878;8.050;2023-08-17T04:37:21;98537.91;;;17.08;94.49
79671;BME280;69137;50.878;8.050;2023-08-17T04:39:47;98535.66;;;17.10;94.20
79671;BME280;69137;50.878;8.050;2023-08-17T04:42:14;98532.78;;;17.01;94.48
79671;BME280;69137;50.878;8.050;2023-08-17T04:44:39;98545.84;;;17.09;94.02
79671;BME280;69137;50.878;8.050;2023-08-17T04:47:04;98541.28;;;17.05;94.56
79671;BME280;69137;50.878;8.050;2023-08-17T04:49:30;98544.91;;;16.86;95.39
79671;BME280;69137;50.878;8.050;2023-08-17T04:51:56;98544.31;;;16.89;95.46
79671;BME280;69137;50.878;8.050;2023-08-17T04:54:21;98545.47;;;17.02;95.62
79671;BME280;69137;50.878;8.050;2023-08-17T04:56:47;98547.56;;;16.91;95.45
79671;BME280;69137;50.878;8.050;2023-08-17T04:59:13;98551.06;;;16.97;95.05
79671;BME280;69137;50.878;8.050;2023-08-17T05:01:38;98562.41;;;16.95;95.67
79671;BME280;69137;50.878;8.050;2023-08-17T05:04:04;98557.00;;;17.04;95.24
79671;BME280;69137;50.878;8.050;2023-08-17T05:06:30;98560.38;;;17.01;95.52
79671;BME280;69137;50.878;8.050;2023-08-17T05:08:56;98564.13;;;16.91;95.86
79671;BME280;69137;50.878;8.050;2023-08-17T05:11:21;98562.22;;;16.92;95.67
79671;BME280;69137;50.878;8.050;2023-08-17T05:13:47;98557.78;;;16.91;96.01
79671;BME280;69137;50.878;8.050;2023-08-17T05:16:12;98551.56;;;16.85;96.40
79671;BME280;69137;50.878;8.050;2023-08-17T05:18:38;98555.94;;;16.86;96.27
79671;BME280;69137;50.878;8.050;2023-08-17T05:21:03;98566.69;;;16.88;96.18
79671;BME280;69137;50.878;8.050;2023-08-17T05:23:29;98552.88;;;16.88;96.00
79671;BME280;69137;50.878;8.050;2023-08-17T05:25:54;98551.38;;;16.95;95.96
79671;BME280;69137;50.878;8.050;2023-08-17T05:28:20;98564.47;;;17.03;95.48
79671;BME280;69137;50.878;8.050;2023-08-17T05:30:47;98565.78;;;17.06;96.04
79671;BME280;69137;50.878;8.050;2023-08-17T05:33:12;98566.31;;;17.22;95.09
79671;BME280;69137;50.878;8.050;2023-08-17T05:35:37;98567.25;;;17.31;94.56
79671;BME280;69137;50.878;8.050;2023-08-17T05:38:03;98573.19;;;17.38;94.19
79671;BME280;69137;50.878;8.050;2023-08-17T05:40:30;98574.41;;;17.32;93.86
79671;BME280;69137;50.878;8.050;2023-08-17T05:42:56;98568.91;;;17.46;93.67
79671;BME280;69137;50.878;8.050;2023-08-17T05:45:21;98567.38;;;17.54;93.09
79671;BME280;69137;50.878;8.050;2023-08-17T05:47:46;98569.50;;;17.57;92.88
79671;BME280;69137;50.878;8.050;2023-08-17T05:50:12;98562.75;;;17.49;93.21
79671;BME280;69137;50.878;8.050;2023-08-17T05:52:37;98560.19;;;17.53;93.14
79671;BME280;69137;50.878;8.050;2023-08-17T05:55:03;98574.53;;;17.55;92.94
79671;BME280;69137;50.878;8.050;2023-08-17T05:57:28;98577.19;;;17.46;93.63
79671;BME280;69137;50.878;8.050;2023-08-17T05:59:53;98573.19;;;17.52;93.07
79671;BME280;69137;50.878;8.050;2023-08-17T06:02:19;98576.03;;;17.61;92.39
79671;BME280;69137;50.878;8.050;2023-08-17T06:04:44;98573.09;;;17.57;92.35
79671;BME280;69137;50.878;8.050;2023-08-17T06:07:10;98573.19;;;17.66;92.02
79671;BME280;69137;50.878;8.050;2023-08-17T06:09:35;98585.88;;;17.67;91.78
79671;BME280;69137;50.878;8.050;2023-08-17T06:12:00;98580.72;;;17.74;92.10
79671;BME280;69137;50.878;8.050;2023-08-17T06:14:26;98589.78;;;17.80;91.94
79671;BME280;69137;50.878;8.050;2023-08-17T06:16:51;98588.72;;;17.76;91.84
79671;BME280;69137;50.878;8.050;2023-08-17T06:19:17;98583.00;;;17.72;92.16
79671;BME280;69137;50.878;8.050;2023-08-17T06:21:42;98585.03;;;17.66;92.53
79671;BME280;69137;50.878;8.050;2023-08-17T06:24:07;98590.78;;;17.70;92.47
79671;BME280;69137;50.878;8.050;2023-08-17T06:26:33;98584.81;;;17.77;91.97
79671;BME280;69137;50.878;8.050;2023-08-17T06:28:58;98578.81;;;17.75;90.76
79671;BME280;69137;50.878;8.050;2023-08-17T06:31:24;98568.91;;;17.87;91.13
79671;BME280;69137;50.878;8.050;2023-08-17T06:33:53;98579.72;;;17.84;90.99
79671;BME280;69137;50.878;8.050;2023-08-17T06:36:18;98587.28;;;17.92;90.73
79671;BME280;69137;50.878;8.050;2023-08-17T06:38:44;98576.34;;;18.01;89.83
79671;BME280;69137;50.878;8.050;2023-08-17T06:41:09;98574.91;;;18.03;90.26
79671;BME280;69137;50.878;8.050;2023-08-17T06:43:35;98578.03;;;18.10;90.75
79671;BME280;69137;50.878;8.050;2023-08-17T06:46:00;98574.56;;;18.19;90.38
79671;BME280;69137;50.878;8.050;2023-08-17T06:48:27;98571.22;;;18.30;89.97
79671;BME280;69137;50.878;8.050;2023-08-17T06:50:53;98570.13;;;18.31;89.80
79671;BME280;69137;50.878;8.050;2023-08-17T06:53:18;98570.94;;;18.32;89.74
79671;BME280;69137;50.878;8.050;2023-08-17T06:55:43;98578.25;;;18.37;88.78
79671;BME280;69137;50.878;8.050;2023-08-17T06:58:09;98583.50;;;18.38;89.23
79671;BME280;69137;50.878;8.050;2023-08-17T07:00:34;98586.31;;;18.47;89.15
79671;BME280;69137;50.878;8.050;2023-08-17T07:03:01;98576.56;;;18.49;88.71
79671;BME280;69137;50.878;8.050;2023-08-17T07:05:26;98582.69;;;18.60;89.23
79671;BME280;69137;50.878;8.050;2023-08-17T07:07:52;98585.59;;;18.77;88.38
79671;BME280;69137;50.878;8.050;2023-08-17T07:10:20;98585.69;;;18.86;87.49
79671;BME280;69137;50.878;8.050;2023-08-17T07:12:46;98583.50;;;18.83;87.62
79671;BME280;69137;50.878;8.050;2023-08-17T07:15:12;98590.56;;;18.89;87.03
79671;BME280;69137;50.878;8.050;2023-08-17T07:17:37;98588.56;;;18.81;87.35
79671;BME280;69137;50.878;8.050;2023-08-17T07:20:04;98587.94;;;18.84;87.08
79671;BME280;69137;50.878;8.050;2023-08-17T07:22:30;98583.34;;;18.80;87.50
79671;BME280;69137;50.878;8.050;2023-08-17T07:24:55;98598.06;;;18.89;86.66
79671;BME280;69137;50.878;8.050;2023-08-17T07:27:21;98585.56;;;18.91;86.35
79671;BME280;69137;50.878;8.050;2023-08-17T07:29:46;98590.69;;;19.07;87.71
79671;BME280;69137;50.878;8.050;2023-08-17T07:32:12;98593.13;;;19.08;87.67
79671;BME280;69137;50.878;8.050;2023-08-17T07:34:37;98586.00;;;19.16;87.20
79671;BME280;69137;50.878;8.050;2023-08-17T07:37:05;98603.63;;;19.20;87.29
79671;BME280;69137;50.878;8.050;2023-08-17T07:39:32;98596.66;;;19.31;85.95
79671;BME280;69137;50.878;8.050;2023-08-17T07:41:57;98609.09;;;19.42;86.40
79671;BME280;69137;50.878;8.050;2023-08-17T07:44:22;98610.09;;;19.47;85.89
79671;BME280;69137;50.878;8.050;2023-08-17T07:46:48;98607.84;;;19.49;86.57
79671;BME280;69137;50.878;8.050;2023-08-17T07:49:13;98604.94;;;19.62;84.46
79671;BME280;69137;50.878;8.050;2023-08-17T07:51:39;98608.66;;;19.58;85.95
79671;BME280;69137;50.878;8.050;2023-08-17T07:54:04;98608.31;;;19.51;84.91
79671;BME280;69137;50.878;8.050;2023-08-17T07:56:30;98607.22;;;19.60;83.93
79671;BME280;69137;50.878;8.050;2023-08-17T07:58:55;98608.59;;;19.72;85.32
79671;BME280;69137;50.878;8.050;2023-08-17T08:01:21;98611.56;;;19.84;83.93
79671;BME280;69137;50.878;8.050;2023-08-17T08:03:46;98600.31;;;19.89;82.70
79671;BME280;69137;50.878;8.050;2023-08-17T08:06:12;98607.00;;;19.88;84.70
79671;BME280;69137;50.878;8.050;2023-08-17T08:08:38;98614.38;;;19.93;85.19
79671;BME280;69137;50.878;8.050;2023-08-17T08:11:04;98608.47;;;19.85;84.15
79671;BME280;69137;50.878;8.050;2023-08-17T08:13:30;98612.56;;;19.88;84.16
79671;BME280;69137;50.878;8.050;2023-08-17T08:15:55;98613.69;;;19.87;81.85
79671;BME280;69137;50.878;8.050;2023-08-17T08:18:21;98615.19;;;19.93;84.74
79671;BME280;69137;50.878;8.050;2023-08-17T08:20:46;98610.28;;;19.90;84.05
79671;BME280;69137;50.878;8.050;2023-08-17T08:23:12;98606.72;;;19.98;84.21
79671;BME280;69137;50.878;8.050;2023-08-17T08:25:37;98612.59;;;20.05;83.63
79671;BME280;69137;50.878;8.050;2023-08-17T08:28:03;98607.22;;;20.18;83.42
79671;BME280;69137;50.878;8.050;2023-08-17T08:30:28;98609.69;;;20.28;82.53
79671;BME280;69137;50.878;8.050;2023-08-17T08:32:53;98607.41;;;20.21;82.95
79671;BME280;69137;50.878;8.050;2023-08-17T08:35:22;98606.09;;;20.19;81.52
79671;BME280;69137;50.878;8.050;2023-08-17T08:37:49;98612.78;;;20.26;83.34
79671;BME280;69137;50.878;8.050;2023-08-17T08:40:16;98607.56;;;20.42;82.39
79671;BME280;69137;50.878;8.050;2023-08-17T08:42:42;98613.47;;;20.49;81.32
79671;BME280;69137;50.878;8.050;2023-08-17T08:45:08;98610.84;;;20.53;81.12
79671;BME280;69137;50.878;8.050;2023-08-17T08:47:34;98618.06;;;20.63;80.61
79671;BME280;69137;50.878;8.050;2023-08-17T08:50:02;98610.19;;;20.65;79.68
79671;BME280;69137;50.878;8.050;2023-08-17T08:52:36;98610.19;;;20.47;80.08
79671;BME280;69137;50.878;8.050;2023-08-17T08:57:41;98615.09;;;20.77;78.53
79671;BME280;69137;50.878;8.050;2023-08-17T09:00:07;98605.16;;;20.67;80.13
79671;BME280;69137;50.878;8.050;2023-08-17T09:02:33;98603.31;;;20.54;79.67
79671;BME280;69137;50.878;8.050;2023-08-17T09:05:00;98598.94;;;20.61;79.50
79671;BME280;69137;50.878;8.050;2023-08-17T09:07:29;98595.34;;;20.52;78.32
79671;BME280;69137;50.878;8.050;2023-08-17T09:09:55;98597.28;;;20.78;80.83
79671;BME280;69137;50.878;8.050;2023-08-17T09:12:23;98599.56;;;20.93;78.56
79671;BME280;69137;50.878;8.050;2023-08-17T09:14:49;98602.16;;;21.07;77.31
79671;BME280;69137;50.878;8.050;2023-08-17T09:17:22;98598.00;;;21.22;76.96
79671;BME280;69137;50.878;8.050;2023-08-17T09:19:48;98590.97;;;21.24;77.63
79671;BME280;69137;50.878;8.050;2023-08-17T09:22:13;98599.97;;;21.30;77.92
79671;BME280;69137;50.878;8.050;2023-08-17T09:24:39;98593.75;;;21.24;77.46
79671;BME280;69137;50.878;8.050;2023-08-17T09:27:04;98593.44;;;21.26;77.50
79671;BME280;69137;50.878;8.050;2023-08-17T09:29:31;98603.47;;;21.09;77.44
79671;BME280;69137;50.878;8.050;2023-08-17T09:32:06;98589.41;;;21.06;77.57
79671;BME280;69137;50.878;8.050;2023-08-17T09:34:32;98602.34;;;21.02;77.63
79671;BME280;69137;50.878;8.050;2023-08-17T09:37:07;98602.97;;;20.99;78.37
79671;BME280;69137;50.878;8.050;2023-08-17T09:39:32;98593.34;;;21.05;78.23
79671;BME280;69137;50.878;8.050;2023-08-17T09:41:59;98593.66;;;21.12;76.71
79671;BME280;69137;50.878;8.050;2023-08-17T09:44:25;98596.78;;;21.02;79.10
79671;BME280;69137;50.878;8.050;2023-08-17T09:46:50;98593.78;;;21.15;77.73
79671;BME280;69137;50.878;8.050;2023-08-17T09:49:17;98588.72;;;21.17;76.77
79671;BME280;69137;50.878;8.050;2023-08-17T09:51:44;98588.38;;;21.28;77.33
79671;BME280;69137;50.878;8.050;2023-08-17T09:54:30;98581.00;;;21.41;78.49
79671;BME280;69137;50.878;8.050;2023-08-17T09:56:57;98580.53;;;21.38;75.73
79671;BME280;69137;50.878;8.050;2023-08-17T09:59:23;98573.13;;;21.34;77.43
79671;BME280;69137;50.878;8.050;2023-08-17T10:01:50;98585.09;;;21.43;78.13
79671;BME280;69137;50.878;8.050;2023-08-17T10:04:21;98587.81;;;21.52;76.00
79671;BME280;69137;50.878;8.050;2023-08-17T10:06:54;98581.78;;;21.50;76.39
79671;BME280;69137;50.878;8.050;2023-08-17T10:09:24;98583.84;;;21.62;76.08
79671;BME280;69137;50.878;8.050;2023-08-17T10:11:57;98580.34;;;21.73;75.70
79671;BME280;69137;50.878;8.050;2023-08-17T10:14:34;98582.94;;;21.78;74.12
79671;BME280;69137;50.878;8.050;2023-08-17T10:17:06;98583.72;;;21.88;76.87
79671;BME280;69137;50.878;8.050;2023-08-17T10:19:49;98584.66;;;21.92;73.60
79671;BME280;69137;50.878;8.050;2023-08-17T10:25:11;98575.41;;;22.09;72.92
79671;BME280;69137;50.878;8.050;2023-08-17T10:27:39;98584.19;;;22.19;74.36
79671;BME280;69137;50.878;8.050;2023-08-17T10:30:08;98578.69;;;22.32;73.86
79671;BME280;69137;50.878;8.050;2023-08-17T10:32:34;98575.75;;;22.28;73.16
79671;BME280;69137;50.878;8.050;2023-08-17T10:35:00;98567.56;;;22.32;72.43
79671;BME280;69137;50.878;8.050;2023-08-17T10:37:27;98568.81;;;22.13;72.02
79671;BME280;69137;50.878;8.050;2023-08-17T10:39:53;98575.84;;;22.40;73.53
79671;BME280;69137;50.878;8.050;2023-08-17T10:42:33;98578.22;;;22.30;71.00
79671;BME280;69137;50.878;8.050;2023-08-17T10:44:59;98563.78;;;22.36;73.62
79671;BME280;69137;50.878;8.050;2023-08-17T10:47:28;98563.66;;;22.03;72.46
79671;BME280;69137;50.878;8.050;2023-08-17T10:52:36;98555.63;;;22.31;72.14
79671;BME280;69137;50.878;8.050;2023-08-17T10:55:08;98559.00;;;22.58;72.28
79671;BME280;69137;50.878;8.050;2023-08-17T10:57:38;98556.50;;;22.77;70.13
79671;BME280;69137;50.878;8.050;2023-08-17T11:00:18;98561.03;;;22.82;69.12
79671;BME280;69137;50.878;8.050;2023-08-17T11:02:57;98557.47;;;23.27;70.65
79671;BME280;69137;50.878;8.050;2023-08-17T11:08:19;98564.34;;;23.66;72.90
79671;BME280;69137;50.878;8.050;2023-08-17T11:11:05;98563.75;;;24.10;69.87
79671;BME280;69137;50.878;8.050;2023-08-17T11:13:32;98565.88;;;24.53;63.52
79671;BME280;69137;50.878;8.050;2023-08-17T11:15:59;98575.31;;;24.77;64.93
79671;BME280;69137;50.878;8.050;2023-08-17T11:18:26;98572.34;;;24.70;67.39
79671;BME280;69137;50.878;8.050;2023-08-17T11:20:53;98573.59;;;24.32;62.78
79671;BME280;69137;50.878;8.050;2023-08-17T11:23:20;98577.69;;;24.22;65.41
79671;BME280;69137;50.878;8.050;2023-08-17T11:25:45;98580.63;;;24.13;65.91
79671;BME280;69137;50.878;8.050;2023-08-17T11:28:12;98579.19;;;24.19;61.90
79671;BME280;69137;50.878;8.050;2023-08-17T11:30:39;98580.38;;;24.06;64.66
79671;BME280;69137;50.878;8.050;2023-08-17T11:33:05;98570.00;;;24.19;64.84
79671;BME280;69137;50.878;8.050;2023-08-17T11:35:31;98571.91;;;24.03;64.17
79671;BME280;69137;50.878;8.050;2023-08-17T11:37:57;98565.00;;;24.12;64.71
79671;BME280;69137;50.878;8.050;2023-08-17T11:40:23;98567.38;;;23.98;65.47
79671;BME280;69137;50.878;8.050;2023-08-17T11:42:49;98575.28;;;23.96;65.87
79671;BME280;69137;50.878;8.050;2023-08-17T11:45:15;98574.06;;;24.34;64.07
79671;BME280;69137;50.878;8.050;2023-08-17T11:47:41;98557.97;;;24.55;61.62
79671;BME280;69137;50.878;8.050;2023-08-17T11:50:10;98565.06;;;24.53;62.74
79671;BME280;69137;50.878;8.050;2023-08-17T11:52:35;98571.56;;;24.57;62.54
79671;BME280;69137;50.878;8.050;2023-08-17T11:55:02;98561.13;;;24.98;62.61
79671;BME280;69137;50.878;8.050;2023-08-17T11:57:31;98555.22;;;25.15;59.79
79671;BME280;69137;50.878;8.050;2023-08-17T11:59:57;98556.66;;;25.09;59.34
79671;BME280;69137;50.878;8.050;2023-08-17T12:02:24;98555.16;;;25.27;67.47
79671;BME280;69137;50.878;8.050;2023-08-17T12:04:50;98554.69;;;25.57;60.95
79671;BME280;69137;50.878;8.050;2023-08-17T12:07:16;98546.13;;;25.82;57.82
79671;BME280;69137;50.878;8.050;2023-08-17T12:09:43;98543.91;;;25.40;58.62
79671;BME280;69137;50.878;8.050;2023-08-17T12:12:09;98541.41;;;25.06;60.59
79671;BME280;69137;50.878;8.050;2023-08-17T12:14:34;98533.28;;;25.01;60.82
79671;BME280;69137;50.878;8.050;2023-08-17T12:17:00;98539.94;;;25.25;60.63
79671;BME280;69137;50.878;8.050;2023-08-17T12:19:25;98532.53;;;25.48;59.78
79671;BME280;69137;50.878;8.050;2023-08-17T12:21:51;98532.25;;;25.54;60.88
79671;BME280;69137;50.878;8.050;2023-08-17T12:24:16;98524.84;;;25.61;61.11
79671;BME280;69137;50.878;8.050;2023-08-17T12:26:45;98526.72;;;25.57;60.44
79671;BME280;69137;50.878;8.050;2023-08-17T12:29:14;98524.56;;;25.19;61.23
79671;BME280;69137;50.878;8.050;2023-08-17T12:31:39;98531.03;;;25.07;60.92
79671;BME280;69137;50.878;8.050;2023-08-17T12:34:05;98533.41;;;25.37;62.49
79671;BME280;69137;50.878;8.050;2023-08-17T12:36:34;98529.97;;;25.59;60.63
79671;BME280;69137;50.878;8.050;2023-08-17T12:39:00;98526.72;;;25.10;61.90
79671;BME280;69137;50.878;8.050;2023-08-17T12:41:26;98529.69;;;25.01;61.74
79671;BME280;69137;50.878;8.050;2023-08-17T12:43:51;98523.00;;;25.05;63.31
79671;BME280;69137;50.878;8.050;2023-08-17T12:46:19;98529.13;;;24.95;62.82
79671;BME280;69137;50.878;8.050;2023-08-17T12:48:44;98531.09;;;25.23;62.32
79671;BME280;69137;50.878;8.050;2023-08-17T12:51:10;98537.59;;;25.43;61.48
79671;BME280;69137;50.878;8.050;2023-08-17T12:53:35;98537.19;;;25.60;60.90
79671;BME280;69137;50.878;8.050;2023-08-17T12:56:01;98530.72;;;25.56;60.49
79671;BME280;69137;50.878;8.050;2023-08-17T12:58:26;98526.47;;;25.31;59.93
79671;BME280;69137;50.878;8.050;2023-08-17T13:00:52;98528.50;;;25.02;63.54
79671;BME280;69137;50.878;8.050;2023-08-17T13:03:19;98534.72;;;25.11;61.01
79671;BME280;69137;50.878;8.050;2023-08-17T13:05:44;98533.34;;;25.33;60.68
79671;BME280;69137;50.878;8.050;2023-08-17T13:08:10;98542.53;;;25.34;62.03
79671;BME280;69137;50.878;8.050;2023-08-17T13:10:36;98546.84;;;25.47;60.95